Ojai, CA (93023)

11:43 AM PST on December 21, 2014 (GMT -0800)
Fairview Road | Change Station
CLOSE
Current Station
Personal Weather Station
Location: Ojai, CA
Elevation: 1056 ft
Nearby Weather Stations

Elev 1056 ft 34.46 °N, 119.26 °W | Updated 6 minutes ago

Partly Cloudy
Partly Cloudy
58.5 °F
Feels Like 58.5 °F
N
0.0
Wind Variable Wind from SW

Today
High -- | Low -- °F
--% Chance of Precip.
Yesterday
High -- | Low -- °F
Precip. -- in
6:59 AM 4:50 PM
Waning Crescent, 0% visible
Pressure 30.14 in
Visibility 10.0 miles
Clouds Clear
Dew Point 55 °F
Humidity 88%
Rainfall 0.00 in
Snow Depth Not available.
UV out of 12
Pollen 4.10 out of 12
Air Quality Not available.
Flu Activity Not available.
METAR KOXR 211851Z 36003KT 10SM CLR 17/11 A3014 RMK AO2 SLP205 T01670106

More Conditions Fewer Conditions

Pressure 30.14 in
Visibility 10.0 miles
Clouds Clear
Dew Point 55 °F
Humidity 88%
Rainfall 0.00 in
Snow Depth Not available.
UV out of 12
Pollen 4.10 out of 12
Air Quality Not available.
Flu Activity Not available.
METAR KOXR 211851Z 36003KT 10SM CLR 17/11 A3014 RMK AO2 SLP205 T01670106

More Conditions Fewer Conditions

10-Day Weather Forecast

Almanac

Astronomy

Dec. 21, 2014 Rise Set
Actual Time
Civil Twilight
Nautical Twilight
Astronomical Twilight
Moon
Length of Visible Light
Length of Day
Tomorrow will be .
, % of the Moon is Illuminated

Today's Extremes

State Highs State Lows

Community

WunderPhotos

Upload Photos

1,779,469 photos uploaded!

WunderBlogs® & News

Nearby

Air Quality

  Air Quality AQ Index Pollutant
Not available.

Snow Depth

Station Depth Elevation

Earthquake Activity

City Distance Mag. Time & Date
Minimum magnitude displayed is 2.5.

Coastal Water Temperatures

Place Temperature

Nearby Weather Stations